Huvudsida
METAR-TAF:

METAR-TAF

Flygplatser :

Neapel, Italien

latitud: 40-51N, longitud: 014-18E, höjd: 88 m

Aktuellt väderrapport

Denna rapport gjordes för 34 minuter sedan, klockan 03:50 UTC
Vind 2 kt från nordost
Temperatur 21°C
Fuktighet 78%
Tryck 1015 hPa
Sikt 10 km eller mer
Inga moln under 1 500 m eller inga cumulonimbus

METAR: LIRN 190350Z 04002KT CAVOK 21/17 Q1015 NOSIG

Tid: 06:24 (04:24 UTC)

Väderprognos

Denna rapport gjordes för 5 timmar och 24 minuter sedan, klockan 23:00 UTC
Prognos gäller från 19 kl. 00 UTC till 19 kl. 24 UTC
Vind 4 kt varierande vindriktning
Sikt 10 km eller mer
Inga moln under 1 500 m eller inga cumulonimbus
Blir
från 19 kl. 08 UTC till 19 kl. 10 UTC
Vind 12 kt från syd/sydväst
Blir
från 19 kl. 16 UTC till 19 kl. 18 UTC
Vind 4 kt varierande vindriktning

TAF: LIRN 182300Z 1900/1924 VRB04KT CAVOK BECMG 1908/1910 20012KT BECMG 1916/1918 VRB04KT

Aktuella väderrapporter och prognoser från 4000 flygplatser (METAR- och TAF-rapporter).

De tillgängliga stationerna syns som gula och röda prickar på kartan.

För musen över prickarna för att se namnen på stationerna.

Klicka sedan för att få väderrapporter och prognoser.

För att ändra kartan: Klicka på de gröna knapparna med ett svart kors på för att zooma in; den gröna knappen med ett streck på för att zooma ut; eller på de gröna pilarna för angränsande kartor.


METAR-TAF: